TimeCST,TemperatureF,Dew PointF,Humidity,Sea Level PressureIn,VisibilityMPH,Wind Direction,Wind SpeedMPH,Gust SpeedMPH,PrecipitationIn,Events,Conditions,WindDirDegrees,DateUTC
12:15 AM,24.4,17.2,74,30.34,10.0,NW,3.5,-,N/A,,Clear,310,2014-02-24 06:15:00
12:35 AM,23.9,16.3,73,30.35,10.0,NW,3.5,-,N/A,,Clear,310,2014-02-24 06:35:00
12:55 AM,23.0,17.1,78,30.35,10.0,NW,5.8,-,N/A,,Clear,320,2014-02-24 06:55:00
1:15 AM,23.5,16.2,73,30.34,10.0,NW,5.8,-,N/A,,Clear,320,2014-02-24 07:15:00
1:35 AM,23.9,16.5,73,30.35,10.0,NW,4.6,-,N/A,,Clear,310,2014-02-24 07:35:00
1:55 AM,23.9,15.8,71,30.34,10.0,NW,4.6,-,N/A,,Clear,310,2014-02-24 07:55:00
2:15 AM,23.7,15.6,71,30.35,10.0,WNW,3.5,-,N/A,,Clear,300,2014-02-24 08:15:00
2:35 AM,23.9,15.6,71,30.33,10.0,NW,5.8,-,N/A,,Clear,310,2014-02-24 08:35:00
2:55 AM,23.5,14.9,70,30.34,10.0,NW,5.8,-,N/A,,Clear,310,2014-02-24 08:55:00
3:15 AM,23.4,15.8,73,30.33,10.0,NW,5.8,-,N/A,,Clear,320,2014-02-24 09:15:00
3:35 AM,22.8,16.0,75,30.33,10.0,NNW,6.9,-,N/A,,Clear,330,2014-02-24 09:35:00
3:55 AM,22.8,15.4,73,30.33,10.0,NNW,8.1,-,N/A,,Clear,330,2014-02-24 09:55:00
4:15 AM,23.0,14.9,71,30.34,10.0,NNW,8.1,-,N/A,,Clear,330,2014-02-24 10:15:00
4:35 AM,23.0,14.5,70,30.33,10.0,NNW,8.1,-,N/A,,Clear,340,2014-02-24 10:35:00
4:55 AM,23.4,15.1,71,30.34,10.0,NNW,8.1,-,N/A,,Clear,330,2014-02-24 10:55:00
5:15 AM,23.4,14.7,70,30.35,10.0,NNW,5.8,-,N/A,,Clear,330,2014-02-24 11:15:00
5:35 AM,23.4,14.5,69,30.36,10.0,NW,5.8,-,N/A,,Scattered Clouds,310,2014-02-24 11:35:00
5:55 AM,23.2,13.5,66,30.36,10.0,WNW,4.6,-,N/A,,Scattered Clouds,300,2014-02-24 11:55:00
6:16 AM,23.5,14.5,69,30.36,10.0,NW,5.8,-,N/A,,Scattered Clouds,310,2014-02-24 12:16:00
6:35 AM,23.5,14.5,69,30.36,10.0,NW,6.9,-,N/A,,Scattered Clouds,310,2014-02-24 12:35:00
6:55 AM,23.7,14.2,67,30.36,10.0,NW,4.6,-,N/A,,Clear,310,2014-02-24 12:55:00
7:15 AM,23.9,14.4,67,30.36,10.0,NW,5.8,-,N/A,,Scattered Clouds,320,2014-02-24 13:15:00
7:35 AM,23.9,14.0,66,30.37,10.0,NW,5.8,-,N/A,,Clear,310,2014-02-24 13:35:00
7:55 AM,24.6,13.6,63,30.37,10.0,NW,5.8,-,N/A,,Scattered Clouds,310,2014-02-24 13:55:00
8:15 AM,24.6,14.4,65,30.38,10.0,NW,6.9,-,N/A,,Clear,310,2014-02-24 14:15:00
8:35 AM,24.8,14.4,65,30.38,10.0,NW,5.8,-,N/A,,Clear,320,2014-02-24 14:35:00
8:55 AM,25.5,14.7,64,30.38,10.0,NNW,6.9,-,N/A,,Clear,330,2014-02-24 14:55:00
9:15 AM,25.7,14.5,63,30.39,10.0,NNW,5.8,-,N/A,,Scattered Clouds,340,2014-02-24 15:15:00
9:35 AM,26.2,14.7,62,30.40,10.0,NW,3.5,-,N/A,,Scattered Clouds,320,2014-02-24 15:35:00
9:55 AM,26.4,14.4,60,30.39,10.0,NNW,6.9,-,N/A,,Mostly Cloudy,330,2014-02-24 15:55:00
10:15 AM,26.8,14.9,61,30.39,10.0,North,3.5,-,N/A,,Overcast,360,2014-02-24 16:15:00
10:35 AM,27.0,14.7,60,30.39,10.0,North,8.1,-,N/A,,Overcast,10,2014-02-24 16:35:00
10:56 AM,26.6,14.9,61,30.38,10.0,Calm,Calm,-,N/A,,Overcast,0,2014-02-24 16:56:00
11:15 AM,27.0,14.4,59,30.39,10.0,NNE,3.5,-,N/A,,Overcast,30,2014-02-24 17:15:00
11:35 AM,27.5,14.2,57,30.39,10.0,Calm,Calm,-,N/A,,Overcast,0,2014-02-24 17:35:00
11:55 AM,27.5,13.8,56,30.38,10.0,WNW,3.5,-,N/A,,Overcast,290,2014-02-24 17:55:00
12:15 PM,28.2,13.3,54,30.38,10.0,NW,3.5,-,N/A,,Overcast,310,2014-02-24 18:15:00
12:35 PM,28.0,12.9,53,30.37,10.0,Calm,Calm,-,N/A,,Overcast,0,2014-02-24 18:35:00
12:55 PM,28.2,14.0,55,30.37,10.0,Calm,Calm,-,N/A,,Overcast,0,2014-02-24 18:55:00
1:15 PM,28.2,12.0,51,30.35,10.0,Calm,Calm,-,N/A,,Overcast,0,2014-02-24 19:15:00
1:35 PM,28.4,13.1,53,30.35,10.0,NNW,5.8,-,N/A,,Overcast,340,2014-02-24 19:35:00
1:55 PM,28.6,13.6,54,30.33,10.0,North,5.8,-,N/A,,Overcast,10,2014-02-24 19:55:00
2:15 PM,28.2,13.6,54,30.33,10.0,North,5.8,-,N/A,,Overcast,360,2014-02-24 20:15:00
2:35 PM,28.0,15.8,60,30.32,10.0,North,6.9,-,N/A,,Overcast,350,2014-02-24 20:35:00
2:55 PM,27.5,16.7,64,30.31,10.0,NNE,5.8,-,N/A,,Overcast,20,2014-02-24 20:55:00
3:15 PM,27.0,18.7,71,30.30,10.0,NE,5.8,-,N/A,,Overcast,40,2014-02-24 21:15:00
3:35 PM,27.0,18.1,69,30.30,10.0,NNE,4.6,-,N/A,,Overcast,30,2014-02-24 21:35:00
3:55 PM,27.0,18.0,69,30.30,10.0,North,3.5,-,N/A,,Overcast,10,2014-02-24 21:55:00
4:15 PM,27.1,17.6,67,30.29,10.0,North,3.5,-,N/A,,Overcast,360,2014-02-24 22:15:00
4:35 PM,27.1,16.0,63,30.29,10.0,NNE,4.6,-,N/A,,Overcast,30,2014-02-24 22:35:00
4:55 PM,27.1,16.3,64,30.28,10.0,NNE,3.5,-,N/A,,Overcast,20,2014-02-24 22:55:00
5:15 PM,27.1,15.8,62,30.28,10.0,Calm,Calm,-,N/A,,Overcast,0,2014-02-24 23:15:00
5:35 PM,27.1,16.0,63,30.28,10.0,NE,3.5,-,N/A,,Overcast,40,2014-02-24 23:35:00
5:55 PM,27.0,16.2,64,30.28,10.0,NE,4.6,-,N/A,,Overcast,40,2014-02-24 23:55:00
6:15 PM,27.0,16.5,65,30.28,10.0,ENE,3.5,-,N/A,,Overcast,60,2014-02-25 00:15:00
6:35 PM,27.0,16.5,65,30.27,10.0,ENE,4.6,-,N/A,,Overcast,60,2014-02-25 00:35:00
6:55 PM,27.0,16.9,66,30.27,10.0,ENE,3.5,-,N/A,,Overcast,70,2014-02-25 00:55:00
7:15 PM,27.0,17.4,67,30.27,10.0,Calm,Calm,-,N/A,,Overcast,0,2014-02-25 01:15:00
7:35 PM,26.8,16.5,65,30.28,10.0,Calm,Calm,-,N/A,,Overcast,0,2014-02-25 01:35:00
7:55 PM,27.0,17.1,66,30.28,10.0,Calm,Calm,-,N/A,,Overcast,0,2014-02-25 01:55:00
8:15 PM,26.8,17.1,67,30.28,10.0,Calm,Calm,-,N/A,,Overcast,0,2014-02-25 02:15:00
8:35 PM,27.0,16.9,66,30.28,10.0,Calm,Calm,-,N/A,,Overcast,0,2014-02-25 02:35:00
8:55 PM,26.8,16.3,65,30.28,10.0,NNE,3.5,-,N/A,,Overcast,30,2014-02-25 02:55:00
9:15 PM,27.0,16.5,65,30.27,10.0,ENE,3.5,-,N/A,,Overcast,60,2014-02-25 03:15:00
9:35 PM,27.0,16.3,64,30.26,10.0,ENE,3.5,-,N/A,,Overcast,70,2014-02-25 03:35:00
9:55 PM,26.8,15.1,61,30.26,10.0,NE,3.5,-,N/A,,Overcast,50,2014-02-25 03:55:00
10:15 PM,26.6,16.5,66,30.26,10.0,NNE,4.6,-,N/A,,Overcast,20,2014-02-25 04:15:00
10:35 PM,26.2,17.8,70,30.25,10.0,ENE,5.8,-,N/A,,Overcast,60,2014-02-25 04:35:00
10:55 PM,26.1,18.5,73,30.27,10.0,NNE,6.9,-,N/A,,Overcast,20,2014-02-25 04:55:00
11:15 PM,25.7,19.0,76,30.26,10.0,NNE,4.6,-,N/A,,Overcast,20,2014-02-25 05:15:00
11:35 PM,25.5,19.4,78,30.26,10.0,NNE,4.6,-,N/A,,Overcast,30,2014-02-25 05:35:00
11:55 PM,25.3,19.8,79,30.26,10.0,North,5.8,-,N/A,,Overcast,10,2014-02-25 05:55:00